St Georges Chan, Ireland
Current Conditions -  °F | °C
As of 9:30 PM on Thursday 27 Nov 2014 (Local Time) from EIWF Reporting Station
Scattered Clouds Scattered Clouds  
Wind Chill: 50°   Ceiling: Unl
Heat Index: 50°   Visibility: 6mi
Dew Point: 46°   Wind: 16mph
Humidity: 87%   Direction: 140°SE
Pressure: 29.38"   Gusts: NA
Location:  52°N, 5.83°W
Report Text: EIWF 272030Z 14014KT 110V170 9999 FEW012 SCT042 10/08 Q0995
Loading
Personal Weather Stations






























Interactive Weather Map New forecast layout! Learn more

10-Day Weather Forecast

Advertisements
Track Severe Weather on mobile